Bondville, Illinois
Current Conditions -  °F | °C
As of 9:53 AM on Wednesday 28 Jan 2015 (Local Time) from KCMI Reporting Station
Clear Clear  
Wind Chill: 17°   Ceiling: Unl
Heat Index: 29°   Visibility: 9mi
Dew Point: 21°   Wind: 16mph
Humidity: 72%   Direction: 160°SSE
Pressure: 30.28"   Gusts: NA
Location:  40.11°N, 88.37°W
Report Text: KCMI 281553Z 16014KT 9SM CLR M02/M06 A3028 RMK AO2 SLP263 T10171061
Loading
Personal Weather Stations






























Interactive Weather Map New forecast layout! Learn more

10-Day Weather Forecast

Advertisements
Track Severe Weather on mobile